sensor_id;sensor_type;location;lat;lon;timestamp;pressure;altitude;pressure_sealevel;temperature;humidity
50696;BME280;36665;51.786;21.594;2023-04-19T00:06:12;95831.62;;;9.28;69.49
50696;BME280;36665;51.786;21.594;2023-04-19T00:14:37;95788.70;;;9.19;69.61
50696;BME280;36665;51.786;21.594;2023-04-19T00:23:00;95723.56;;;9.02;69.54
50696;BME280;36665;51.786;21.594;2023-04-19T00:31:23;95670.74;;;8.88;69.22
50696;BME280;36665;51.786;21.594;2023-04-19T00:39:46;95634.81;;;8.79;69.27
50696;BME280;36665;51.786;21.594;2023-04-19T00:48:09;95579.86;;;8.64;69.21
50696;BME280;36665;51.786;21.594;2023-04-19T00:56:34;95524.87;;;8.50;69.28
50696;BME280;36665;51.786;21.594;2023-04-19T01:04:57;95479.39;;;8.39;69.34
50696;BME280;36665;51.786;21.594;2023-04-19T01:13:21;95432.00;;;8.25;69.42
50696;BME280;36665;51.786;21.594;2023-04-19T01:21:44;95383.14;;;8.12;69.07
50696;BME280;36665;51.786;21.594;2023-04-19T01:30:09;95349.62;;;8.04;69.34
50696;BME280;36665;51.786;21.594;2023-04-19T01:38:32;95306.11;;;7.93;69.19
50696;BME280;36665;51.786;21.594;2023-04-19T01:46:56;95263.24;;;7.81;69.22
50696;BME280;36665;51.786;21.594;2023-04-19T01:55:20;95236.16;;;7.75;69.38
50696;BME280;36665;51.786;21.594;2023-04-19T02:03:43;95185.99;;;7.62;69.23
50696;BME280;36665;51.786;21.594;2023-04-19T02:12:09;95123.55;;;7.45;69.29
50696;BME280;36665;51.786;21.594;2023-04-19T02:20:32;95074.57;;;7.32;69.23
50696;BME280;36665;51.786;21.594;2023-04-19T02:28:55;95049.13;;;7.26;69.17
50696;BME280;36665;51.786;21.594;2023-04-19T02:37:18;95000.81;;;7.13;69.28
50696;BME280;36665;51.786;21.594;2023-04-19T02:45:41;94931.56;;;6.96;69.16
50696;BME280;36665;51.786;21.594;2023-04-19T02:54:07;94898.34;;;6.87;69.33
50696;BME280;36665;51.786;21.594;2023-04-19T03:02:31;94911.48;;;6.90;69.33
50696;BME280;36665;51.786;21.594;2023-04-19T03:10:57;94888.16;;;6.84;69.33
50696;BME280;36665;51.786;21.594;2023-04-19T03:19:20;94846.77;;;6.72;69.28
50696;BME280;36665;51.786;21.594;2023-04-19T03:27:46;94826.20;;;6.69;69.15
50696;BME280;36665;51.786;21.594;2023-04-19T03:36:15;94853.13;;;6.76;69.16
50696;BME280;36665;51.786;21.594;2023-04-19T03:44:40;94862.39;;;6.79;69.42
50696;BME280;36665;51.786;21.594;2023-04-19T03:53:04;94835.27;;;6.70;69.47
50696;BME280;36665;51.786;21.594;2023-04-19T04:01:29;94812.69;;;6.66;69.39
50696;BME280;36665;51.786;21.594;2023-04-19T04:09:55;94832.59;;;6.71;69.59
50696;BME280;36665;51.786;21.594;2023-04-19T04:18:19;94861.61;;;6.78;69.36
50696;BME280;36665;51.786;21.594;2023-04-19T04:26:45;94863.34;;;6.78;69.46
50696;BME280;36665;51.786;21.594;2023-04-19T04:35:14;94886.46;;;6.84;69.48
50696;BME280;36665;51.786;21.594;2023-04-19T04:43:41;94909.55;;;6.90;69.47
50696;BME280;36665;51.786;21.594;2023-04-19T04:52:07;94942.16;;;6.99;69.70
50696;BME280;36665;51.786;21.594;2023-04-19T05:00:38;94955.88;;;7.02;69.72
50696;BME280;36665;51.786;21.594;2023-04-19T05:09:03;94986.58;;;7.10;69.63
50696;BME280;36665;51.786;21.594;2023-04-19T05:17:31;95032.05;;;7.22;69.67
50696;BME280;36665;51.786;21.594;2023-04-19T05:25:54;95068.94;;;7.32;69.87
50696;BME280;36665;51.786;21.594;2023-04-19T05:34:19;95079.48;;;7.34;69.89
50696;BME280;36665;51.786;21.594;2023-04-19T05:42:45;95114.52;;;7.42;69.84
50696;BME280;36665;51.786;21.594;2023-04-19T05:51:09;95137.73;;;7.49;69.81
50696;BME280;36665;51.786;21.594;2023-04-19T05:59:50;95122.34;;;7.45;69.99
50696;BME280;36665;51.786;21.594;2023-04-19T06:08:18;95120.85;;;7.44;70.11
50696;BME280;36665;51.786;21.594;2023-04-19T06:16:41;95098.50;;;7.39;70.19
50696;BME280;36665;51.786;21.594;2023-04-19T06:25:04;95113.89;;;7.43;70.04
50696;BME280;36665;51.786;21.594;2023-04-19T06:33:27;95123.63;;;7.46;70.02
50696;BME280;36665;51.786;21.594;2023-04-19T06:41:50;95168.06;;;7.57;70.18
50696;BME280;36665;51.786;21.594;2023-04-19T06:50:13;95191.17;;;7.62;70.11
50696;BME280;36665;51.786;21.594;2023-04-19T06:58:36;95241.20;;;7.75;70.07
50696;BME280;36665;51.786;21.594;2023-04-19T07:06:59;95255.23;;;7.79;70.30
50696;BME280;36665;51.786;21.594;2023-04-19T07:15:22;95265.74;;;7.81;70.41
50696;BME280;36665;51.786;21.594;2023-04-19T07:23:45;95282.02;;;7.85;70.18
50696;BME280;36665;51.786;21.594;2023-04-19T07:32:08;95283.19;;;7.85;70.38
50696;BME280;36665;51.786;21.594;2023-04-19T07:40:32;95301.98;;;7.90;70.41
50696;BME280;36665;51.786;21.594;2023-04-19T07:48:55;95301.91;;;7.91;70.47
50696;BME280;36665;51.786;21.594;2023-04-19T07:57:34;95313.48;;;7.93;70.48
50696;BME280;36665;51.786;21.594;2023-04-19T08:06:00;95349.34;;;8.02;70.58
50696;BME280;36665;51.786;21.594;2023-04-19T08:14:24;95389.55;;;8.13;70.59
50696;BME280;36665;51.786;21.594;2023-04-19T08:23:10;95454.88;;;8.29;70.63
50696;BME280;36665;51.786;21.594;2023-04-19T08:31:44;95591.70;;;8.66;70.74
50696;BME280;36665;51.786;21.594;2023-04-19T08:40:08;95765.13;;;9.10;70.88
50696;BME280;36665;51.786;21.594;2023-04-19T08:48:33;95790.88;;;9.16;70.97
50696;BME280;36665;51.786;21.594;2023-04-19T08:56:58;95822.55;;;9.24;71.04
50696;BME280;36665;51.786;21.594;2023-04-19T09:05:25;95864.15;;;9.33;71.10
50696;BME280;36665;51.786;21.594;2023-04-19T09:13:48;95852.05;;;9.31;71.03
50696;BME280;36665;51.786;21.594;2023-04-19T09:22:13;95877.67;;;9.37;70.90
50696;BME280;36665;51.786;21.594;2023-04-19T09:30:37;95888.67;;;9.41;71.04
50696;BME280;36665;51.786;21.594;2023-04-19T09:39:32;95887.00;;;9.38;71.10
50696;BME280;36665;51.786;21.594;2023-04-19T09:48:05;95925.19;;;9.48;71.20
50696;BME280;36665;51.786;21.594;2023-04-19T09:56:32;95920.54;;;9.47;71.03
50696;BME280;36665;51.786;21.594;2023-04-19T10:04:56;95963.96;;;9.59;71.24
50696;BME280;36665;51.786;21.594;2023-04-19T10:13:40;96128.99;;;10.00;71.27
50696;BME280;36665;51.786;21.594;2023-04-19T10:22:05;96281.61;;;10.39;71.31
50696;BME280;36665;51.786;21.594;2023-04-19T10:30:28;96425.67;;;10.75;71.53
50696;BME280;36665;51.786;21.594;2023-04-19T10:38:52;96545.42;;;11.05;71.61
50696;BME280;36665;51.786;21.594;2023-04-19T10:47:43;96589.37;;;11.16;71.54
50696;BME280;36665;51.786;21.594;2023-04-19T10:56:06;96525.92;;;10.99;71.51
50696;BME280;36665;51.786;21.594;2023-04-19T11:12:52;96488.83;;;10.90;71.55
50696;BME280;36665;51.786;21.594;2023-04-19T11:21:18;96455.61;;;10.82;71.42
50696;BME280;36665;51.786;21.594;2023-04-19T11:29:42;96414.16;;;10.71;71.40
50696;BME280;36665;51.786;21.594;2023-04-19T11:38:05;96399.89;;;10.67;71.27
50696;BME280;36665;51.786;21.594;2023-04-19T11:46:28;96428.94;;;10.75;71.48
50696;BME280;36665;51.786;21.594;2023-04-19T11:54:52;96491.66;;;10.90;71.30
50696;BME280;36665;51.786;21.594;2023-04-19T12:03:15;96552.13;;;11.06;71.39
50696;BME280;36665;51.786;21.594;2023-04-19T12:11:42;96687.45;;;11.40;71.49
50696;BME280;36665;51.786;21.594;2023-04-19T12:20:06;96829.35;;;11.75;71.62
50696;BME280;36665;51.786;21.594;2023-04-19T12:28:30;96952.02;;;12.06;71.71
50696;BME280;36665;51.786;21.594;2023-04-19T12:36:53;97069.33;;;12.34;71.72
50696;BME280;36665;51.786;21.594;2023-04-19T12:45:17;97206.92;;;12.69;71.72
50696;BME280;36665;51.786;21.594;2023-04-19T12:53:41;97241.39;;;12.76;71.81
50696;BME280;36665;51.786;21.594;2023-04-19T13:02:09;97274.38;;;12.85;71.70
50696;BME280;36665;51.786;21.594;2023-04-19T13:10:32;97486.87;;;13.36;71.87
50696;BME280;36665;51.786;21.594;2023-04-19T13:18:55;97602.05;;;13.65;71.78
50696;BME280;36665;51.786;21.594;2023-04-19T13:27:17;97647.16;;;13.76;71.86
50696;BME280;36665;51.786;21.594;2023-04-19T13:35:40;97810.20;;;14.16;71.88
50696;BME280;36665;51.786;21.594;2023-04-19T13:44:03;97868.40;;;14.30;71.90
50696;BME280;36665;51.786;21.594;2023-04-19T13:52:26;97862.26;;;14.28;71.98
50696;BME280;36665;51.786;21.594;2023-04-19T14:00:50;97825.19;;;14.20;71.73
50696;BME280;36665;51.786;21.594;2023-04-19T14:09:13;97597.61;;;13.64;71.68
50696;BME280;36665;51.786;21.594;2023-04-19T14:17:36;97172.51;;;12.58;71.42
50696;BME280;36665;51.786;21.594;2023-04-19T14:25:59;96722.35;;;11.48;71.04
50696;BME280;36665;51.786;21.594;2023-04-19T14:34:22;96478.73;;;10.86;70.97
50696;BME280;36665;51.786;21.594;2023-04-19T14:42:45;96415.13;;;10.70;70.89
50696;BME280;36665;51.786;21.594;2023-04-19T14:51:08;96409.65;;;10.69;71.02
50696;BME280;36665;51.786;21.594;2023-04-19T14:59:31;96432.33;;;10.75;70.98
50696;BME280;36665;51.786;21.594;2023-04-19T15:07:54;96484.09;;;10.88;71.09
50696;BME280;36665;51.786;21.594;2023-04-19T15:16:16;96560.63;;;11.06;70.99
50696;BME280;36665;51.786;21.594;2023-04-19T15:24:39;96617.17;;;11.21;71.06
50696;BME280;36665;51.786;21.594;2023-04-19T15:33:02;96630.42;;;11.25;71.22
50696;BME280;36665;51.786;21.594;2023-04-19T15:41:30;96603.16;;;11.18;71.12
50696;BME280;36665;51.786;21.594;2023-04-19T15:49:52;96609.52;;;11.19;71.32
50696;BME280;36665;51.786;21.594;2023-04-19T15:58:15;96634.03;;;11.25;71.23
50696;BME280;36665;51.786;21.594;2023-04-19T16:06:38;96622.70;;;11.23;71.14
50696;BME280;36665;51.786;21.594;2023-04-19T16:15:02;96598.27;;;11.16;71.26
50696;BME280;36665;51.786;21.594;2023-04-19T16:23:26;96606.08;;;11.18;71.14
50696;BME280;36665;51.786;21.594;2023-04-19T16:31:49;96618.80;;;11.21;71.18
50696;BME280;36665;51.786;21.594;2023-04-19T16:40:14;96607.52;;;11.18;71.16
50696;BME280;36665;51.786;21.594;2023-04-19T16:48:37;96603.06;;;11.17;71.22
50696;BME280;36665;51.786;21.594;2023-04-19T16:57:00;96576.45;;;11.10;71.29
50696;BME280;36665;51.786;21.594;2023-04-19T17:05:24;96501.66;;;10.92;71.24
50696;BME280;36665;51.786;21.594;2023-04-19T17:13:47;96453.88;;;10.79;71.21
50696;BME280;36665;51.786;21.594;2023-04-19T17:22:10;96415.52;;;10.70;71.04
50696;BME280;36665;51.786;21.594;2023-04-19T17:30:33;96339.26;;;10.51;71.02
50696;BME280;36665;51.786;21.594;2023-04-19T17:38:56;96255.46;;;10.30;71.06
50696;BME280;36665;51.786;21.594;2023-04-19T17:47:19;96169.77;;;10.09;71.02
50696;BME280;36665;51.786;21.594;2023-04-19T17:55:42;96068.52;;;9.83;70.94
50696;BME280;36665;51.786;21.594;2023-04-19T18:04:05;95955.17;;;9.55;70.81
50696;BME280;36665;51.786;21.594;2023-04-19T18:12:29;95875.81;;;9.35;70.64
50696;BME280;36665;51.786;21.594;2023-04-19T18:20:52;95820.11;;;9.20;70.67
50696;BME280;36665;51.786;21.594;2023-04-19T18:29:15;95751.07;;;9.03;70.57
50696;BME280;36665;51.786;21.594;2023-04-19T18:37:38;95695.48;;;8.89;70.58
50696;BME280;36665;51.786;21.594;2023-04-19T18:46:01;95679.28;;;8.85;70.43
50696;BME280;36665;51.786;21.594;2023-04-19T18:54:24;95686.35;;;8.87;70.52
50696;BME280;36665;51.786;21.594;2023-04-19T19:02:47;95685.41;;;8.86;70.45
50696;BME280;36665;51.786;21.594;2023-04-19T19:11:10;95677.03;;;8.85;70.47
50696;BME280;36665;51.786;21.594;2023-04-19T19:19:36;95694.29;;;8.90;70.51
50696;BME280;36665;51.786;21.594;2023-04-19T19:27:59;95693.95;;;8.89;70.52
50696;BME280;36665;51.786;21.594;2023-04-19T19:36:25;95651.92;;;8.79;70.45
50696;BME280;36665;51.786;21.594;2023-04-19T19:44:52;95591.49;;;8.63;70.51
50696;BME280;36665;51.786;21.594;2023-04-19T19:53:16;95588.66;;;8.62;70.53
50696;BME280;36665;51.786;21.594;2023-04-19T20:01:40;95627.38;;;8.72;70.55
50696;BME280;36665;51.786;21.594;2023-04-19T20:10:09;95651.80;;;8.79;70.54
50696;BME280;36665;51.786;21.594;2023-04-19T20:18:33;95667.17;;;8.83;70.57
50696;BME280;36665;51.786;21.594;2023-04-19T20:26:56;95661.08;;;8.81;70.58
50696;BME280;36665;51.786;21.594;2023-04-19T20:35:20;95639.21;;;8.76;70.61
50696;BME280;36665;51.786;21.594;2023-04-19T20:43:43;95634.33;;;8.75;70.61
50696;BME280;36665;51.786;21.594;2023-04-19T20:52:05;95627.27;;;8.73;70.61
50696;BME280;36665;51.786;21.594;2023-04-19T21:00:28;95604.19;;;8.66;70.63
50696;BME280;36665;51.786;21.594;2023-04-19T21:08:51;95605.42;;;8.66;70.61
50696;BME280;36665;51.786;21.594;2023-04-19T21:17:14;95589.83;;;8.63;70.71
50696;BME280;36665;51.786;21.594;2023-04-19T21:25:37;95576.84;;;8.59;70.71
50696;BME280;36665;51.786;21.594;2023-04-19T21:34:00;95581.52;;;8.61;70.63
50696;BME280;36665;51.786;21.594;2023-04-19T21:42:23;95588.05;;;8.61;70.86
50696;BME280;36665;51.786;21.594;2023-04-19T21:50:46;95578.33;;;8.60;70.81
50696;BME280;36665;51.786;21.594;2023-04-19T21:59:10;95570.77;;;8.58;70.72
50696;BME280;36665;51.786;21.594;2023-04-19T22:07:33;95552.31;;;8.52;70.71
50696;BME280;36665;51.786;21.594;2023-04-19T22:15:58;95502.39;;;8.39;70.79
50696;BME280;36665;51.786;21.594;2023-04-19T22:24:24;95457.22;;;8.27;70.73
50696;BME280;36665;51.786;21.594;2023-04-19T22:32:47;95440.84;;;8.24;70.73
50696;BME280;36665;51.786;21.594;2023-04-19T22:41:10;95417.06;;;8.17;70.74
50696;BME280;36665;51.786;21.594;2023-04-19T22:49:33;95373.42;;;8.06;70.63
50696;BME280;36665;51.786;21.594;2023-04-19T22:57:57;95365.63;;;8.04;70.71
50696;BME280;36665;51.786;21.594;2023-04-19T23:06:20;95377.49;;;8.07;70.54
50696;BME280;36665;51.786;21.594;2023-04-19T23:14:43;95362.70;;;8.04;70.68
50696;BME280;36665;51.786;21.594;2023-04-19T23:23:06;95332.98;;;7.96;70.73
50696;BME280;36665;51.786;21.594;2023-04-19T23:31:30;95314.30;;;7.92;70.68
50696;BME280;36665;51.786;21.594;2023-04-19T23:39:52;95292.53;;;7.86;70.67
50696;BME280;36665;51.786;21.594;2023-04-19T23:48:15;95225.34;;;7.68;70.63
50696;BME280;36665;51.786;21.594;2023-04-19T23:56:39;95138.07;;;7.46;70.72
